sensor_id;sensor_type;location;lat;lon;timestamp;pressure;altitude;pressure_sealevel;temperature;humidity
48614;BME280;34408;51.426;5.444;2023-07-13T00:00:25;101353.16;;;20.83;45.90
48614;BME280;34408;51.426;5.444;2023-07-13T00:02:53;101353.41;;;20.81;45.88
48614;BME280;34408;51.426;5.444;2023-07-13T00:05:23;101361.09;;;20.79;45.96
48614;BME280;34408;51.426;5.444;2023-07-13T00:07:51;101360.28;;;20.78;46.07
48614;BME280;34408;51.426;5.444;2023-07-13T00:10:19;101346.91;;;20.77;46.07
48614;BME280;34408;51.426;5.444;2023-07-13T00:12:48;101348.00;;;20.76;46.08
48614;BME280;34408;51.426;5.444;2023-07-13T00:15:17;101346.66;;;20.73;46.21
48614;BME280;34408;51.426;5.444;2023-07-13T00:17:49;101354.84;;;20.73;46.17
48614;BME280;34408;51.426;5.444;2023-07-13T00:20:17;101362.50;;;20.71;46.35
48614;BME280;34408;51.426;5.444;2023-07-13T00:22:49;101358.94;;;20.71;46.25
48614;BME280;34408;51.426;5.444;2023-07-13T00:25:18;101353.75;;;20.69;46.29
48614;BME280;34408;51.426;5.444;2023-07-13T00:27:47;101353.22;;;20.67;46.13
48614;BME280;34408;51.426;5.444;2023-07-13T00:30:16;101349.94;;;20.65;46.33
48614;BME280;34408;51.426;5.444;2023-07-13T00:32:44;101342.84;;;20.64;46.29
48614;BME280;34408;51.426;5.444;2023-07-13T00:35:13;101353.22;;;20.62;46.34
48614;BME280;34408;51.426;5.444;2023-07-13T00:37:42;101346.94;;;20.62;46.34
48614;BME280;34408;51.426;5.444;2023-07-13T00:40:13;101360.88;;;20.60;46.36
48614;BME280;34408;51.426;5.444;2023-07-13T00:42:41;101349.13;;;20.60;46.36
48614;BME280;34408;51.426;5.444;2023-07-13T00:48:10;101365.25;;;20.56;46.59
48614;BME280;34408;51.426;5.444;2023-07-13T00:50:39;101367.16;;;20.56;46.67
48614;BME280;34408;51.426;5.444;2023-07-13T00:53:07;101371.81;;;20.55;46.74
48614;BME280;34408;51.426;5.444;2023-07-13T00:55:37;101364.16;;;20.52;46.58
48614;BME280;34408;51.426;5.444;2023-07-13T00:58:06;101368.81;;;20.52;46.67
48614;BME280;34408;51.426;5.444;2023-07-13T01:00:35;101363.63;;;20.50;46.68
48614;BME280;34408;51.426;5.444;2023-07-13T01:03:04;101359.25;;;20.49;46.65
48614;BME280;34408;51.426;5.444;2023-07-13T01:05:33;101360.34;;;20.48;46.78
48614;BME280;34408;51.426;5.444;2023-07-13T01:08:03;101354.34;;;20.46;46.80
48614;BME280;34408;51.426;5.444;2023-07-13T01:10:32;101360.91;;;20.45;46.85
48614;BME280;34408;51.426;5.444;2023-07-13T01:13:07;101368.28;;;20.44;46.92
48614;BME280;34408;51.426;5.444;2023-07-13T01:15:38;101371.81;;;20.45;46.76
48614;BME280;34408;51.426;5.444;2023-07-13T01:18:08;101372.38;;;20.42;46.75
48614;BME280;34408;51.426;5.444;2023-07-13T01:20:37;101366.38;;;20.40;46.86
48614;BME280;34408;51.426;5.444;2023-07-13T01:23:08;101375.09;;;20.42;46.97
48614;BME280;34408;51.426;5.444;2023-07-13T01:25:37;101382.47;;;20.41;47.02
48614;BME280;34408;51.426;5.444;2023-07-13T01:28:06;101371.84;;;20.40;47.04
48614;BME280;34408;51.426;5.444;2023-07-13T01:30:36;101363.91;;;20.38;47.00
48614;BME280;34408;51.426;5.444;2023-07-13T01:33:06;101363.91;;;20.38;47.20
48614;BME280;34408;51.426;5.444;2023-07-13T01:35:36;101368.81;;;20.36;47.19
48614;BME280;34408;51.426;5.444;2023-07-13T01:38:05;101366.34;;;20.35;47.34
48614;BME280;34408;51.426;5.444;2023-07-13T01:40:35;101370.16;;;20.34;47.24
48614;BME280;34408;51.426;5.444;2023-07-13T01:43:03;101376.72;;;20.33;47.37
48614;BME280;34408;51.426;5.444;2023-07-13T01:45:30;101370.16;;;20.29;47.29
48614;BME280;34408;51.426;5.444;2023-07-13T01:47:57;101374.53;;;20.30;47.34
48614;BME280;34408;51.426;5.444;2023-07-13T01:50:26;101372.09;;;20.28;47.62
48614;BME280;34408;51.426;5.444;2023-07-13T01:52:54;101373.16;;;20.27;47.65
48614;BME280;34408;51.426;5.444;2023-07-13T01:55:23;101377.00;;;20.26;47.72
48614;BME280;34408;51.426;5.444;2023-07-13T01:57:51;101378.09;;;20.25;47.65
48614;BME280;34408;51.426;5.444;2023-07-13T02:00:19;101380.00;;;20.25;47.83
48614;BME280;34408;51.426;5.444;2023-07-13T02:02:47;101379.19;;;20.24;47.70
48614;BME280;34408;51.426;5.444;2023-07-13T02:05:15;101383.28;;;20.22;47.63
48614;BME280;34408;51.426;5.444;2023-07-13T02:07:43;101380.53;;;20.22;47.85
48614;BME280;34408;51.426;5.444;2023-07-13T02:10:11;101375.09;;;20.11;47.85
48614;BME280;34408;51.426;5.444;2023-07-13T02:12:41;101388.19;;;20.20;47.96
48614;BME280;34408;51.426;5.444;2023-07-13T02:15:10;101389.28;;;20.19;47.81
48614;BME280;34408;51.426;5.444;2023-07-13T02:17:38;101389.56;;;20.17;47.82
48614;BME280;34408;51.426;5.444;2023-07-13T02:20:06;101389.81;;;20.15;48.01
48614;BME280;34408;51.426;5.444;2023-07-13T02:22:35;101387.38;;;20.14;48.14
48614;BME280;34408;51.426;5.444;2023-07-13T02:25:04;101383.00;;;20.13;48.07
48614;BME280;34408;51.426;5.444;2023-07-13T02:27:32;101386.00;;;20.11;48.19
48614;BME280;34408;51.426;5.444;2023-07-13T02:30:01;101387.91;;;20.11;48.21
48614;BME280;34408;51.426;5.444;2023-07-13T02:32:29;101384.63;;;20.09;48.40
48614;BME280;34408;51.426;5.444;2023-07-13T02:34:57;101386.53;;;20.08;48.50
48614;BME280;34408;51.426;5.444;2023-07-13T02:37:25;101389.53;;;20.07;48.46
48614;BME280;34408;51.426;5.444;2023-07-13T02:39:52;101388.72;;;20.06;48.48
48614;BME280;34408;51.426;5.444;2023-07-13T02:42:20;101387.91;;;20.06;48.45
48614;BME280;34408;51.426;5.444;2023-07-13T02:44:48;101387.34;;;20.04;48.59
48614;BME280;34408;51.426;5.444;2023-07-13T02:47:18;101388.44;;;20.03;48.60
48614;BME280;34408;51.426;5.444;2023-07-13T02:49:46;101384.91;;;20.02;48.74
48614;BME280;34408;51.426;5.444;2023-07-13T02:52:14;101384.34;;;20.00;48.48
48614;BME280;34408;51.426;5.444;2023-07-13T02:54:42;101385.44;;;19.99;48.67
48614;BME280;34408;51.426;5.444;2023-07-13T02:57:09;101381.91;;;19.99;48.70
48614;BME280;34408;51.426;5.444;2023-07-13T02:59:37;101385.72;;;19.98;48.86
48614;BME280;34408;51.426;5.444;2023-07-13T03:02:05;101390.34;;;19.97;49.00
48614;BME280;34408;51.426;5.444;2023-07-13T03:04:34;101376.97;;;19.96;49.16
48614;BME280;34408;51.426;5.444;2023-07-13T03:07:03;101389.00;;;19.95;48.83
48614;BME280;34408;51.426;5.444;2023-07-13T03:09:33;101384.88;;;19.87;49.20
48614;BME280;34408;51.426;5.444;2023-07-13T03:12:01;101385.97;;;19.91;49.03
48614;BME280;34408;51.426;5.444;2023-07-13T03:14:29;101394.44;;;19.90;49.21
48614;BME280;34408;51.426;5.444;2023-07-13T03:16:57;101385.44;;;19.89;48.92
48614;BME280;34408;51.426;5.444;2023-07-13T03:19:24;101389.25;;;19.88;49.20
48614;BME280;34408;51.426;5.444;2023-07-13T03:21:53;101390.34;;;19.87;49.16
48614;BME280;34408;51.426;5.444;2023-07-13T03:24:21;101393.06;;;19.87;49.09
48614;BME280;34408;51.426;5.444;2023-07-13T03:26:52;101393.59;;;19.84;48.98
48614;BME280;34408;51.426;5.444;2023-07-13T03:29:20;101403.69;;;19.83;49.19
48614;BME280;34408;51.426;5.444;2023-07-13T03:31:47;101405.59;;;19.83;49.26
48614;BME280;34408;51.426;5.444;2023-07-13T03:34:15;101408.34;;;19.83;48.93
48614;BME280;34408;51.426;5.444;2023-07-13T03:36:43;101414.88;;;19.82;49.07
48614;BME280;34408;51.426;5.444;2023-07-13T03:39:12;101416.78;;;19.81;49.19
48614;BME280;34408;51.426;5.444;2023-07-13T03:41:40;101415.16;;;19.80;49.26
48614;BME280;34408;51.426;5.444;2023-07-13T03:44:08;101417.06;;;19.80;49.19
48614;BME280;34408;51.426;5.444;2023-07-13T03:46:36;101411.31;;;19.76;49.29
48614;BME280;34408;51.426;5.444;2023-07-13T03:49:04;101417.59;;;19.77;49.18
48614;BME280;34408;51.426;5.444;2023-07-13T03:51:32;101422.22;;;19.76;49.21
48614;BME280;34408;51.426;5.444;2023-07-13T03:54:00;101413.50;;;19.74;49.55
48614;BME280;34408;51.426;5.444;2023-07-13T03:56:30;101424.41;;;19.74;49.17
48614;BME280;34408;51.426;5.444;2023-07-13T03:58:59;101418.94;;;19.74;49.27
48614;BME280;34408;51.426;5.444;2023-07-13T04:01:28;101422.78;;;19.73;49.52
48614;BME280;34408;51.426;5.444;2023-07-13T04:03:56;101416.75;;;19.71;49.49
48614;BME280;34408;51.426;5.444;2023-07-13T04:06:30;101433.13;;;19.71;49.61
48614;BME280;34408;51.426;5.444;2023-07-13T04:09:00;101432.31;;;19.71;49.63
48614;BME280;34408;51.426;5.444;2023-07-13T04:11:30;101426.03;;;19.65;49.95
48614;BME280;34408;51.426;5.444;2023-07-13T04:13:59;101430.94;;;19.68;49.57
48614;BME280;34408;51.426;5.444;2023-07-13T04:16:27;101430.94;;;19.68;49.92
48614;BME280;34408;51.426;5.444;2023-07-13T04:18:57;101435.56;;;19.68;49.93
48614;BME280;34408;51.426;5.444;2023-07-13T04:21:28;101441.28;;;19.66;49.96
48614;BME280;34408;51.426;5.444;2023-07-13T04:23:56;101438.84;;;19.65;49.95
48614;BME280;34408;51.426;5.444;2023-07-13T04:26:24;101448.91;;;19.64;49.92
48614;BME280;34408;51.426;5.444;2023-07-13T04:28:53;101440.75;;;19.64;50.01
48614;BME280;34408;51.426;5.444;2023-07-13T04:31:21;101439.38;;;19.62;50.40
48614;BME280;34408;51.426;5.444;2023-07-13T04:33:49;101447.56;;;19.62;50.27
48614;BME280;34408;51.426;5.444;2023-07-13T04:36:18;101444.28;;;19.60;50.32
48614;BME280;34408;51.426;5.444;2023-07-13T04:38:46;101451.63;;;19.59;50.57
48614;BME280;34408;51.426;5.444;2023-07-13T04:41:14;101453.53;;;19.59;50.52
48614;BME280;34408;51.426;5.444;2023-07-13T04:43:42;101458.16;;;19.58;50.35
48614;BME280;34408;51.426;5.444;2023-07-13T04:46:13;101452.16;;;19.56;51.55
48614;BME280;34408;51.426;5.444;2023-07-13T04:48:42;101456.25;;;19.54;51.15
48614;BME280;34408;51.426;5.444;2023-07-13T04:51:10;101457.34;;;19.53;51.39
48614;BME280;34408;51.426;5.444;2023-07-13T04:53:38;101460.63;;;19.55;51.22
48614;BME280;34408;51.426;5.444;2023-07-13T04:56:06;101462.50;;;19.54;51.70
48614;BME280;34408;51.426;5.444;2023-07-13T04:58:34;101467.97;;;19.54;51.79
48614;BME280;34408;51.426;5.444;2023-07-13T05:01:04;101462.78;;;19.53;51.45
48614;BME280;34408;51.426;5.444;2023-07-13T05:03:34;101460.88;;;19.53;51.38
48614;BME280;34408;51.426;5.444;2023-07-13T05:06:04;101461.97;;;19.52;51.63
48614;BME280;34408;51.426;5.444;2023-07-13T05:08:33;101465.50;;;19.53;51.75
48614;BME280;34408;51.426;5.444;2023-07-13T05:11:01;101466.34;;;19.58;51.37
48614;BME280;34408;51.426;5.444;2023-07-13T05:13:29;101478.91;;;19.59;51.28
48614;BME280;34408;51.426;5.444;2023-07-13T05:15:58;101478.34;;;19.57;51.74
48614;BME280;34408;51.426;5.444;2023-07-13T05:18:27;101483.25;;;19.55;51.96
48614;BME280;34408;51.426;5.444;2023-07-13T05:21:00;101482.69;;;19.53;52.12
48614;BME280;34408;51.426;5.444;2023-07-13T05:23:28;101486.50;;;19.52;52.77
48614;BME280;34408;51.426;5.444;2023-07-13T05:25:56;101485.69;;;19.52;52.11
48614;BME280;34408;51.426;5.444;2023-07-13T05:28:25;101491.13;;;19.52;51.96
48614;BME280;34408;51.426;5.444;2023-07-13T05:30:53;101486.50;;;19.52;52.69
48614;BME280;34408;51.426;5.444;2023-07-13T05:33:21;101490.28;;;19.51;53.06
48614;BME280;34408;51.426;5.444;2023-07-13T05:35:49;101494.91;;;19.50;52.78
48614;BME280;34408;51.426;5.444;2023-07-13T05:38:19;101491.38;;;19.50;52.90
48614;BME280;34408;51.426;5.444;2023-07-13T05:40:47;101487.00;;;19.49;52.53
48614;BME280;34408;51.426;5.444;2023-07-13T05:43:15;101491.38;;;19.50;53.11
48614;BME280;34408;51.426;5.444;2023-07-13T05:45:42;101497.66;;;19.50;53.13
48614;BME280;34408;51.426;5.444;2023-07-13T05:48:10;101491.97;;;19.52;53.22
48614;BME280;34408;51.426;5.444;2023-07-13T05:50:38;101502.03;;;19.52;53.06
48614;BME280;34408;51.426;5.444;2023-07-13T05:53:06;101511.03;;;19.52;53.18
48614;BME280;34408;51.426;5.444;2023-07-13T05:55:35;101505.81;;;19.50;53.05
48614;BME280;34408;51.426;5.444;2023-07-13T05:58:03;101502.28;;;19.50;53.76
48614;BME280;34408;51.426;5.444;2023-07-13T06:00:30;101514.25;;;19.49;53.93
48614;BME280;34408;51.426;5.444;2023-07-13T06:02:58;101508.00;;;19.48;53.59
48614;BME280;34408;51.426;5.444;2023-07-13T06:05:26;101504.72;;;19.46;53.53
48614;BME280;34408;51.426;5.444;2023-07-13T06:07:55;101515.91;;;19.50;53.58
48614;BME280;34408;51.426;5.444;2023-07-13T06:10:23;101509.19;;;19.63;54.54
48614;BME280;34408;51.426;5.444;2023-07-13T06:12:52;101515.28;;;19.90;53.46
48614;BME280;34408;51.426;5.444;2023-07-13T06:15:20;101524.78;;;19.72;53.67
48614;BME280;34408;51.426;5.444;2023-07-13T06:17:48;101523.66;;;19.68;53.87
48614;BME280;34408;51.426;5.444;2023-07-13T06:20:15;101524.47;;;19.69;53.56
48614;BME280;34408;51.426;5.444;2023-07-13T06:22:43;101531.84;;;19.68;53.27
48614;BME280;34408;51.426;5.444;2023-07-13T06:25:11;101524.75;;;19.67;53.22
48614;BME280;34408;51.426;5.444;2023-07-13T06:27:39;101530.47;;;19.66;53.43
48614;BME280;34408;51.426;5.444;2023-07-13T06:30:09;101526.09;;;19.65;53.30
48614;BME280;34408;51.426;5.444;2023-07-13T06:32:37;101531.56;;;19.65;53.31
48614;BME280;34408;51.426;5.444;2023-07-13T06:35:07;101527.19;;;19.64;53.56
48614;BME280;34408;51.426;5.444;2023-07-13T06:37:39;101536.47;;;19.63;53.97
48614;BME280;34408;51.426;5.444;2023-07-13T06:40:08;101543.00;;;19.62;54.56
48614;BME280;34408;51.426;5.444;2023-07-13T06:42:36;101540.53;;;19.60;54.36
48614;BME280;34408;51.426;5.444;2023-07-13T06:45:05;101545.97;;;19.60;54.22
48614;BME280;34408;51.426;5.444;2023-07-13T06:47:35;101545.16;;;19.60;54.41
48614;BME280;34408;51.426;5.444;2023-07-13T06:50:03;101546.81;;;19.61;54.23
48614;BME280;34408;51.426;5.444;2023-07-13T06:52:31;101544.91;;;19.61;53.93
48614;BME280;34408;51.426;5.444;2023-07-13T06:54:58;101546.53;;;19.62;53.81
48614;BME280;34408;51.426;5.444;2023-07-13T06:57:26;101546.53;;;19.62;53.76
48614;BME280;34408;51.426;5.444;2023-07-13T06:59:54;101548.78;;;19.75;53.44
48614;BME280;34408;51.426;5.444;2023-07-13T07:02:22;101537.31;;;19.73;53.71
48614;BME280;34408;51.426;5.444;2023-07-13T07:04:51;101556.41;;;19.73;53.66
48614;BME280;34408;51.426;5.444;2023-07-13T07:07:23;101553.72;;;19.78;53.44
48614;BME280;34408;51.426;5.444;2023-07-13T07:09:51;101555.31;;;19.74;54.02
48614;BME280;34408;51.426;5.444;2023-07-13T07:12:19;101551.22;;;19.72;53.84
48614;BME280;34408;51.426;5.444;2023-07-13T07:14:47;101551.81;;;19.79;54.56
48614;BME280;34408;51.426;5.444;2023-07-13T07:17:14;101559.69;;;19.75;53.61
48614;BME280;34408;51.426;5.444;2023-07-13T07:19:42;101560.22;;;19.72;54.03
48614;BME280;34408;51.426;5.444;2023-07-13T07:22:11;101552.88;;;19.78;53.74
48614;BME280;34408;51.426;5.444;2023-07-13T07:24:39;101559.13;;;19.73;54.14
48614;BME280;34408;51.426;5.444;2023-07-13T07:27:07;101565.41;;;19.74;54.10
48614;BME280;34408;51.426;5.444;2023-07-13T07:29:38;101562.69;;;19.74;53.96
48614;BME280;34408;51.426;5.444;2023-07-13T07:32:14;101564.91;;;19.82;53.87
48614;BME280;34408;51.426;5.444;2023-07-13T07:35:02;101562.16;;;19.77;54.18
48614;BME280;34408;51.426;5.444;2023-07-13T07:37:31;101565.97;;;19.76;53.77
48614;BME280;34408;51.426;5.444;2023-07-13T07:40:02;101565.97;;;19.76;53.56
48614;BME280;34408;51.426;5.444;2023-07-13T07:42:33;101559.69;;;19.75;53.78
48614;BME280;34408;51.426;5.444;2023-07-13T07:45:01;101556.22;;;19.90;53.52
48614;BME280;34408;51.426;5.444;2023-07-13T07:47:28;101569.53;;;19.81;53.84
48614;BME280;34408;51.426;5.444;2023-07-13T07:49:56;101566.00;;;19.81;53.85
48614;BME280;34408;51.426;5.444;2023-07-13T07:52:24;101568.53;;;20.03;54.50
48614;BME280;34408;51.426;5.444;2023-07-13T07:54:53;101571.81;;;20.00;53.71
48614;BME280;34408;51.426;5.444;2023-07-13T07:57:41;101573.16;;;19.97;53.58
48614;BME280;34408;51.426;5.444;2023-07-13T08:00:13;101578.34;;;19.99;53.82
48614;BME280;34408;51.426;5.444;2023-07-13T08:02:44;101582.44;;;19.96;53.97
48614;BME280;34408;51.426;5.444;2023-07-13T08:05:15;101581.88;;;19.94;53.96
48614;BME280;34408;51.426;5.444;2023-07-13T08:07:46;101583.00;;;20.03;53.65
48614;BME280;34408;51.426;5.444;2023-07-13T08:10:15;101577.78;;;19.97;53.82
48614;BME280;34408;51.426;5.444;2023-07-13T08:12:43;101564.41;;;19.95;53.88
48614;BME280;34408;51.426;5.444;2023-07-13T08:15:31;101565.53;;;19.99;54.21
48614;BME280;34408;51.426;5.444;2023-07-13T08:17:59;101569.34;;;19.98;54.13
48614;BME280;34408;51.426;5.444;2023-07-13T08:20:26;101579.44;;;19.98;54.26
48614;BME280;34408;51.426;5.444;2023-07-13T08:22:54;101571.25;;;19.98;54.13
48614;BME280;34408;51.426;5.444;2023-07-13T08:25:23;101571.31;;;20.13;54.51
48614;BME280;34408;51.426;5.444;2023-07-13T08:27:51;101577.56;;;20.08;54.29
48614;BME280;34408;51.426;5.444;2023-07-13T08:30:19;101576.28;;;20.36;53.85
48614;BME280;34408;51.426;5.444;2023-07-13T08:32:47;101583.63;;;20.26;54.32
48614;BME280;34408;51.426;5.444;2023-07-13T08:35:16;101583.34;;;20.22;53.99
48614;BME280;34408;51.426;5.444;2023-07-13T08:37:43;101575.72;;;20.24;53.92
48614;BME280;34408;51.426;5.444;2023-07-13T08:40:12;101571.91;;;20.25;53.70
48614;BME280;34408;51.426;5.444;2023-07-13T08:42:45;101586.31;;;20.15;53.94
48614;BME280;34408;51.426;5.444;2023-07-13T08:45:18;101589.31;;;20.14;54.28
48614;BME280;34408;51.426;5.444;2023-07-13T08:47:52;101580.06;;;20.15;54.30
48614;BME280;34408;51.426;5.444;2023-07-13T08:50:23;101581.41;;;20.18;53.99
48614;BME280;34408;51.426;5.444;2023-07-13T08:52:54;101568.03;;;20.16;54.61
48614;BME280;34408;51.426;5.444;2023-07-13T08:55:27;101578.44;;;20.19;54.10
48614;BME280;34408;51.426;5.444;2023-07-13T08:58:01;101577.06;;;20.17;54.27
48614;BME280;34408;51.426;5.444;2023-07-13T09:00:49;101581.47;;;20.38;53.94
48614;BME280;34408;51.426;5.444;2023-07-13T09:03:22;101585.81;;;20.29;53.85
48614;BME280;34408;51.426;5.444;2023-07-13T09:05:53;101579.03;;;20.36;53.87
48614;BME280;34408;51.426;5.444;2023-07-13T09:08:51;101573.81;;;20.25;54.02
48614;BME280;34408;51.426;5.444;2023-07-13T09:11:39;101580.63;;;20.27;53.91
48614;BME280;34408;51.426;5.444;2023-07-13T09:14:33;101582.53;;;20.27;53.95
48614;BME280;34408;51.426;5.444;2023-07-13T09:17:03;101580.06;;;20.20;53.70
48614;BME280;34408;51.426;5.444;2023-07-13T09:19:33;101577.34;;;20.25;53.70
48614;BME280;34408;51.426;5.444;2023-07-13T09:22:04;101575.97;;;20.23;53.73
48614;BME280;34408;51.426;5.444;2023-07-13T09:24:38;101566.72;;;20.29;54.19
48614;BME280;34408;51.426;5.444;2023-07-13T09:27:13;101563.16;;;20.28;53.92
48614;BME280;34408;51.426;5.444;2023-07-13T09:29:47;101570.25;;;20.29;53.71
48614;BME280;34408;51.426;5.444;2023-07-13T09:32:18;101568.63;;;20.33;53.95
48614;BME280;34408;51.426;5.444;2023-07-13T09:34:52;101574.63;;;20.30;53.56
48614;BME280;34408;51.426;5.444;2023-07-13T09:37:21;101567.81;;;20.28;53.54
48614;BME280;34408;51.426;5.444;2023-07-13T09:39:52;101573.56;;;20.31;53.61
48614;BME280;34408;51.426;5.444;2023-07-13T09:42:22;101574.38;;;20.32;53.64
48614;BME280;34408;51.426;5.444;2023-07-13T09:44:56;101572.44;;;20.27;53.79
48614;BME280;34408;51.426;5.444;2023-07-13T09:47:25;101577.09;;;20.32;53.57
48614;BME280;34408;51.426;5.444;2023-07-13T09:49:55;101577.91;;;20.27;53.79
48614;BME280;34408;51.426;5.444;2023-07-13T09:52:40;101575.44;;;20.26;53.75
48614;BME280;34408;51.426;5.444;2023-07-13T09:55:24;101579.25;;;20.25;53.68
48614;BME280;34408;51.426;5.444;2023-07-13T09:57:52;101573.81;;;20.25;53.78
48614;BME280;34408;51.426;5.444;2023-07-13T10:00:26;101583.63;;;20.26;53.83
48614;BME280;34408;51.426;5.444;2023-07-13T10:03:02;101580.44;;;20.39;53.84
48614;BME280;34408;51.426;5.444;2023-07-13T10:05:39;101583.19;;;20.54;53.78
48614;BME280;34408;51.426;5.444;2023-07-13T10:08:17;101577.72;;;20.44;53.70
48614;BME280;34408;51.426;5.444;2023-07-13T10:10:45;101579.63;;;20.43;53.80
48614;BME280;34408;51.426;5.444;2023-07-13T10:13:25;101577.44;;;20.51;53.77
48614;BME280;34408;51.426;5.444;2023-07-13T10:15:55;101579.63;;;20.49;53.72
48614;BME280;34408;51.426;5.444;2023-07-13T10:18:25;101582.09;;;20.50;53.74
48614;BME280;34408;51.426;5.444;2023-07-13T10:20:54;101578.25;;;20.51;53.74
48614;BME280;34408;51.426;5.444;2023-07-13T10:23:50;101577.19;;;20.57;53.92
48614;BME280;34408;51.426;5.444;2023-07-13T10:26:22;101578.28;;;20.61;54.03
48614;BME280;34408;51.426;5.444;2023-07-13T10:28:53;101592.50;;;20.63;53.98
48614;BME280;34408;51.426;5.444;2023-07-13T10:31:24;101590.84;;;20.62;53.58
48614;BME280;34408;51.426;5.444;2023-07-13T10:33:52;101589.22;;;20.61;53.16
48614;BME280;34408;51.426;5.444;2023-07-13T10:36:29;101581.03;;;20.66;53.11
48614;BME280;34408;51.426;5.444;2023-07-13T10:39:01;101589.50;;;20.70;53.07
48614;BME280;34408;51.426;5.444;2023-07-13T10:41:33;101583.75;;;20.71;53.28
48614;BME280;34408;51.426;5.444;2023-07-13T10:44:04;101585.66;;;20.71;53.42
48614;BME280;34408;51.426;5.444;2023-07-13T10:46:35;101579.38;;;20.70;53.35
48614;BME280;34408;51.426;5.444;2023-07-13T10:49:05;101581.84;;;20.77;53.31
48614;BME280;34408;51.426;5.444;2023-07-13T10:51:35;101600.97;;;20.77;52.99
48614;BME280;34408;51.426;5.444;2023-07-13T10:54:15;101600.69;;;20.73;52.40
48614;BME280;34408;51.426;5.444;2023-07-13T10:56:48;101596.06;;;20.74;52.62
48614;BME280;34408;51.426;5.444;2023-07-13T10:59:18;101596.88;;;20.74;52.35
48614;BME280;34408;51.426;5.444;2023-07-13T11:01:54;101591.97;;;20.76;52.60
48614;BME280;34408;51.426;5.444;2023-07-13T11:04:23;101598.25;;;20.77;52.72
48614;BME280;34408;51.426;5.444;2023-07-13T11:06:57;101599.06;;;20.77;52.73
48614;BME280;34408;51.426;5.444;2023-07-13T11:09:37;101588.41;;;20.76;52.53
48614;BME280;34408;51.426;5.444;2023-07-13T11:12:08;101594.97;;;20.80;52.32
48614;BME280;34408;51.426;5.444;2023-07-13T11:15:06;101592.25;;;20.80;52.36
48614;BME280;34408;51.426;5.444;2023-07-13T11:17:48;101597.41;;;20.82;52.24
48614;BME280;34408;51.426;5.444;2023-07-13T11:20:22;101595.22;;;20.84;51.95
48614;BME280;34408;51.426;5.444;2023-07-13T11:22:53;101601.22;;;20.86;52.13
48614;BME280;34408;51.426;5.444;2023-07-13T11:25:36;101598.50;;;20.86;52.04
48614;BME280;34408;51.426;5.444;2023-07-13T11:28:11;101585.94;;;20.90;52.49
48614;BME280;34408;51.426;5.444;2023-07-13T11:30:43;101591.66;;;20.88;52.42
48614;BME280;34408;51.426;5.444;2023-07-13T11:33:18;101583.75;;;20.87;52.43
48614;BME280;34408;51.426;5.444;2023-07-13T11:35:53;101587.03;;;20.89;52.42
48614;BME280;34408;51.426;5.444;2023-07-13T11:38:31;101585.94;;;20.95;52.30
48614;BME280;34408;51.426;5.444;2023-07-13T11:41:04;101589.47;;;20.95;51.41
48614;BME280;34408;51.426;5.444;2023-07-13T11:43:32;101585.38;;;20.98;51.46
48614;BME280;34408;51.426;5.444;2023-07-13T11:46:14;101585.13;;;20.94;51.47
48614;BME280;34408;51.426;5.444;2023-07-13T11:48:44;101580.19;;;20.96;51.67
48614;BME280;34408;51.426;5.444;2023-07-13T11:51:18;101588.41;;;21.01;51.68
48614;BME280;34408;51.426;5.444;2023-07-13T11:53:49;101596.03;;;21.04;51.10
48614;BME280;34408;51.426;5.444;2023-07-13T11:56:19;101582.66;;;21.03;51.02
48614;BME280;34408;51.426;5.444;2023-07-13T11:58:49;101586.19;;;21.08;51.31
48614;BME280;34408;51.426;5.444;2023-07-13T12:01:21;101592.22;;;21.10;51.21
48614;BME280;34408;51.426;5.444;2023-07-13T12:03:51;101586.19;;;21.13;50.91
48614;BME280;34408;51.426;5.444;2023-07-13T12:06:26;101592.75;;;21.12;50.47
48614;BME280;34408;51.426;5.444;2023-07-13T12:08:58;101596.59;;;21.11;50.60
48614;BME280;34408;51.426;5.444;2023-07-13T12:11:27;101599.31;;;21.11;50.49
48614;BME280;34408;51.426;5.444;2023-07-13T12:13:55;101597.41;;;21.12;50.14
48614;BME280;34408;51.426;5.444;2023-07-13T12:16:27;101604.50;;;21.13;50.27
48614;BME280;34408;51.426;5.444;2023-07-13T12:18:57;101598.78;;;21.15;49.66
48614;BME280;34408;51.426;5.444;2023-07-13T12:21:30;101602.06;;;21.17;50.33
48614;BME280;34408;51.426;5.444;2023-07-13T12:23:59;101608.06;;;21.19;50.30
48614;BME280;34408;51.426;5.444;2023-07-13T12:26:29;101599.59;;;21.20;49.58
48614;BME280;34408;51.426;5.444;2023-07-13T12:28:59;101605.38;;;21.24;49.86
48614;BME280;34408;51.426;5.444;2023-07-13T12:31:34;101603.16;;;21.26;49.95
48614;BME280;34408;51.426;5.444;2023-07-13T12:34:08;101609.72;;;21.25;49.59
48614;BME280;34408;51.426;5.444;2023-07-13T12:36:38;101606.19;;;21.29;49.57
48614;BME280;34408;51.426;5.444;2023-07-13T12:39:14;101613.28;;;21.30;49.28
48614;BME280;34408;51.426;5.444;2023-07-13T12:41:42;101615.47;;;21.33;49.89
48614;BME280;34408;51.426;5.444;2023-07-13T12:44:14;101614.38;;;21.34;49.46
48614;BME280;34408;51.426;5.444;2023-07-13T12:46:58;101623.41;;;21.40;49.58
48614;BME280;34408;51.426;5.444;2023-07-13T12:49:30;101624.22;;;21.46;49.87
48614;BME280;34408;51.426;5.444;2023-07-13T12:52:09;101627.47;;;21.53;49.70
48614;BME280;34408;51.426;5.444;2023-07-13T12:54:41;101629.13;;;21.54;49.38
48614;BME280;34408;51.426;5.444;2023-07-13T12:57:21;101626.94;;;21.51;49.52
48614;BME280;34408;51.426;5.444;2023-07-13T12:59:52;101627.22;;;21.49;49.66
48614;BME280;34408;51.426;5.444;2023-07-13T13:02:28;101623.66;;;21.49;50.19
48614;BME280;34408;51.426;5.444;2023-07-13T13:04:58;101623.09;;;21.57;50.07
48614;BME280;34408;51.426;5.444;2023-07-13T13:07:26;101631.03;;;21.58;50.24
48614;BME280;34408;51.426;5.444;2023-07-13T13:09:56;101641.69;;;21.65;49.61